createdAt,value
2019-04-23T00:02:23.242Z,48.00
2019-04-23T00:05:16.934Z,48.50
2019-04-23T00:08:11.263Z,49.00
2019-04-23T00:10:59.135Z,49.30
2019-04-23T00:13:49.847Z,49.70
2019-04-23T00:16:40.894Z,50.10
2019-04-23T00:19:33.063Z,50.30
2019-04-23T00:22:43.818Z,50.60
2019-04-23T00:26:13.029Z,50.60
2019-04-23T00:29:07.434Z,50.70
2019-04-23T00:31:53.344Z,50.70
2019-04-23T00:34:51.442Z,50.90
2019-04-23T00:40:25.820Z,51.10
2019-04-23T00:43:15.104Z,51.30
2019-04-23T00:45:59.322Z,51.50
2019-04-23T00:48:59.195Z,51.60
2019-04-23T00:51:34.737Z,51.80
2019-04-23T00:54:22.548Z,51.80
2019-04-23T01:00:02.066Z,52.10
2019-04-23T01:02:53.335Z,52.30
2019-04-23T01:05:52.684Z,52.80
2019-04-23T01:08:30.217Z,53.10
2019-04-23T01:14:17.686Z,53.30
2019-04-23T01:17:09.907Z,53.10
2019-04-23T01:20:01.621Z,53.30
2019-04-23T01:22:33.506Z,53.30
2019-04-23T01:25:43.673Z,53.30
2019-04-23T01:28:48.295Z,53.10
2019-04-23T01:31:44.547Z,53.20
2019-04-23T01:34:31.414Z,53.50
2019-04-23T01:37:26.801Z,53.80
2019-04-23T01:40:13.594Z,54.00
2019-04-23T01:42:58.717Z,54.20
2019-04-23T01:45:50.202Z,54.40
2019-04-23T01:48:50.294Z,54.70
2019-04-23T01:51:42.351Z,54.80
2019-04-23T01:54:25.757Z,55.00
2019-04-23T01:57:21.501Z,55.00
2019-04-23T02:00:13.396Z,55.10
2019-04-23T02:03:06.072Z,55.10
2019-04-23T02:05:53.520Z,55.20
2019-04-23T02:08:39.923Z,55.20
2019-04-23T02:11:28.170Z,55.20
2019-04-23T02:17:10.308Z,55.30
2019-04-23T02:20:14.439Z,55.50
2019-04-23T02:23:14.912Z,55.80
2019-04-23T02:28:46.289Z,56.40
2019-04-23T02:34:42.948Z,56.90
2019-04-23T02:48:54.564Z,57.60
2019-04-23T02:51:29.142Z,57.80
2019-04-23T02:54:33.132Z,58.10
2019-04-23T02:57:08.885Z,58.00
2019-04-23T03:00:16.140Z,58.20
2019-04-23T03:05:45.976Z,58.80
2019-04-23T03:08:36.372Z,59.10
2019-04-23T03:11:25.850Z,59.40
2019-04-23T03:17:13.095Z,59.50
2019-04-23T03:23:47.137Z,59.90
2019-04-23T03:26:42.147Z,60.00
2019-04-23T03:40:21.114Z,61.10
2019-04-23T03:43:26.264Z,60.50
2019-04-23T03:46:16.035Z,60.50
2019-04-23T03:51:42.881Z,60.70
2019-04-23T03:54:42.284Z,61.00
2019-04-23T03:57:30.925Z,61.30
2019-04-23T04:00:31.642Z,61.60
2019-04-23T04:03:10.361Z,61.80
2019-04-23T04:05:58.243Z,62.20
2019-04-23T04:11:33.733Z,62.60
2019-04-23T04:14:32.205Z,62.90
2019-04-23T04:17:15.911Z,63.10
2019-04-23T04:20:11.106Z,63.10
2019-04-23T04:23:19.506Z,63.30
2019-04-23T04:25:49.896Z,63.60
2019-04-23T04:31:36.895Z,64.20
2019-04-23T04:40:07.866Z,64.90
2019-04-23T04:43:00.138Z,65.20
2019-04-23T04:48:37.729Z,65.90
2019-04-23T04:51:28.979Z,65.60
2019-04-23T04:57:02.626Z,66.40
2019-04-23T05:00:06.799Z,66.70
2019-04-23T05:03:18.047Z,66.90
2019-04-23T05:08:29.021Z,67.00
2019-04-23T05:14:08.424Z,67.10
2019-04-23T05:19:57.423Z,67.40
2019-04-23T05:22:40.779Z,67.70
2019-04-23T05:25:16.926Z,67.60
2019-04-23T05:31:05.736Z,67.80
2019-04-23T05:34:00.298Z,67.90
2019-04-23T05:39:35.376Z,67.90
2019-04-23T05:42:26.069Z,68.30
2019-04-23T05:45:16.400Z,68.50
2019-04-23T05:48:12.974Z,68.50
2019-04-23T05:56:39.709Z,68.70
2019-04-23T05:59:29.927Z,68.80
2019-04-23T06:02:23.208Z,68.80
2019-04-23T06:05:14.750Z,68.40
2019-04-23T06:08:09.425Z,68.90
2019-04-23T06:10:55.602Z,69.00
2019-04-23T06:13:48.078Z,68.80
2019-04-23T06:16:35.645Z,68.10
2019-04-23T06:19:21.533Z,68.10
2019-04-23T06:25:22.094Z,68.60
2019-04-23T06:28:01.798Z,68.30
2019-04-23T06:30:56.080Z,68.20
2019-04-23T06:33:44.332Z,67.90
2019-04-23T06:36:33.345Z,67.40
2019-04-23T06:39:26.256Z,67.10
2019-04-23T06:42:14.076Z,67.10
2019-04-23T06:45:00.999Z,66.70
2019-04-23T06:48:02.257Z,66.80
2019-04-23T06:50:48.817Z,66.40
2019-04-23T06:53:37.443Z,66.70
2019-04-23T06:56:33.461Z,66.60
2019-04-23T06:59:19.969Z,66.80
2019-04-23T07:02:11.801Z,66.80
2019-04-23T07:05:06.618Z,66.50
2019-04-23T07:08:04.291Z,66.60
2019-04-23T07:10:40.604Z,66.40
2019-04-23T07:13:44.909Z,66.70
2019-04-23T07:16:34.869Z,66.70
2019-04-23T07:19:17.724Z,66.40
2019-04-23T07:22:08.147Z,67.30
2019-04-23T07:24:58.036Z,66.80
2019-04-23T07:27:40.890Z,67.10
2019-04-23T07:30:32.924Z,67.20
2019-04-23T07:33:31.106Z,67.00
2019-04-23T07:36:17.238Z,67.20
2019-04-23T07:42:35.356Z,67.20
2019-04-23T07:45:54.836Z,67.00
2019-04-23T07:48:34.106Z,67.10
2019-04-23T07:51:44.858Z,66.50
2019-04-23T07:54:22.843Z,66.20
2019-04-23T08:00:00.730Z,66.80
2019-04-23T08:03:01.898Z,68.10
2019-04-23T08:05:39.701Z,67.90
2019-04-23T08:08:30.314Z,67.30
2019-04-23T08:11:33.065Z,67.80
2019-04-23T08:14:08.368Z,67.50
2019-04-23T08:17:04.326Z,67.10
2019-04-23T08:20:03.068Z,66.80
2019-04-23T08:22:45.800Z,66.10
2019-04-23T08:26:10.137Z,65.10
2019-04-23T08:29:04.101Z,65.50
2019-04-23T08:31:27.473Z,65.30
2019-04-23T08:34:17.135Z,65.50
2019-04-23T08:37:06.435Z,64.40
2019-04-23T08:39:47.058Z,64.30
2019-04-23T08:42:45.747Z,64.10
2019-04-23T08:45:53.615Z,63.90
2019-04-23T08:48:50.283Z,64.10
2019-04-23T08:51:45.877Z,64.80
2019-04-23T08:54:47.023Z,64.30
2019-04-23T09:00:09.226Z,63.40
2019-04-23T09:03:00.552Z,63.80
2019-04-23T09:05:56.232Z,64.20
2019-04-23T09:08:37.457Z,63.10
2019-04-23T09:11:44.122Z,63.40
2019-04-23T09:14:08.759Z,63.40
2019-04-23T09:17:28.933Z,63.80
2019-04-23T09:20:18.542Z,63.80
2019-04-23T09:22:50.345Z,63.70
2019-04-23T09:25:47.722Z,63.70
2019-04-23T09:28:39.697Z,64.10
2019-04-23T09:38:05.519Z,64.80
2019-04-23T09:47:40.931Z,63.80
2019-04-23T09:50:33.100Z,64.80
2019-04-23T09:56:06.716Z,65.00
2019-04-23T09:59:02.319Z,64.70
2019-04-23T10:01:45.172Z,64.80
2019-04-23T10:04:27.901Z,63.70
2019-04-23T10:07:16.452Z,63.60
2019-04-23T10:09:55.690Z,64.80
2019-04-23T10:12:46.182Z,64.90
2019-04-23T10:15:40.392Z,63.80
2019-04-23T10:18:26.852Z,64.20
2019-04-23T10:20:57.321Z,64.60
2019-04-23T10:23:47.462Z,64.70
2019-04-23T10:26:37.941Z,64.70
2019-04-23T10:29:13.857Z,65.00
2019-04-23T10:32:03.848Z,64.30
2019-04-23T10:35:05.299Z,63.50
2019-04-23T10:37:50.943Z,64.10
2019-04-23T10:40:39.887Z,61.50
2019-04-23T10:43:25.132Z,62.70
2019-04-23T10:46:53.080Z,62.60
2019-04-23T10:52:53.753Z,63.30
2019-04-23T10:55:44.728Z,62.10
2019-04-23T10:58:31.852Z,61.60
2019-04-23T11:01:20.841Z,62.60
2019-04-23T11:13:25.262Z,63.80
2019-04-23T11:16:40.038Z,61.40
2019-04-23T11:21:58.441Z,60.50
2019-04-23T11:24:53.402Z,60.60
2019-04-23T11:27:36.229Z,59.90
2019-04-23T11:47:23.196Z,59.30
2019-04-23T11:50:13.972Z,59.90
2019-04-23T11:53:00.278Z,59.20
2019-04-23T11:58:37.596Z,59.30
2019-04-23T12:01:49.221Z,59.10
2019-04-23T12:08:01.076Z,60.20
2019-04-23T12:14:30.535Z,58.20
2019-04-23T12:17:28.944Z,57.70
2019-04-23T12:20:03.343Z,57.50
2019-04-23T12:22:58.768Z,57.70
2019-04-23T12:28:40.833Z,56.20
2019-04-23T12:31:28.636Z,56.40
2019-04-23T12:33:57.692Z,56.00
2019-04-23T12:36:48.378Z,55.80
2019-04-23T12:39:27.051Z,56.10
2019-04-23T12:42:08.577Z,55.60
2019-04-23T12:44:52.544Z,55.40
2019-04-23T12:47:53.642Z,55.90
2019-04-23T12:50:45.040Z,56.00
2019-04-23T12:56:08.839Z,56.20
2019-04-23T12:58:51.584Z,57.20
2019-04-23T13:01:55.897Z,57.90
2019-04-23T13:04:44.904Z,57.20
2019-04-23T13:07:40.117Z,56.20
2019-04-23T13:10:21.076Z,57.30
2019-04-23T13:13:16.671Z,58.10
2019-04-23T13:16:05.646Z,56.70
2019-04-23T13:18:50.681Z,56.70
2019-04-23T13:24:54.169Z,57.60
2019-04-23T13:27:57.259Z,57.00
2019-04-23T13:33:39.065Z,56.80
2019-04-23T13:39:17.962Z,57.70
2019-04-23T13:42:07.631Z,57.60
2019-04-23T13:44:56.015Z,56.20
2019-04-23T13:47:53.237Z,56.60
2019-04-23T13:56:25.227Z,54.70
2019-04-23T13:59:18.830Z,55.60
2019-04-23T14:02:07.736Z,55.00
2019-04-23T14:05:12.346Z,55.10
2019-04-23T14:08:02.655Z,55.90
2019-04-23T14:10:55.719Z,55.50
2019-04-23T14:16:48.812Z,56.00
2019-04-23T14:19:16.492Z,55.90
2019-04-23T14:22:43.391Z,55.90
2019-04-23T14:25:07.818Z,56.60
2019-04-23T14:28:11.636Z,55.80
2019-04-23T14:30:53.414Z,55.30
2019-04-23T14:34:00.086Z,56.10
2019-04-23T14:42:20.971Z,55.20
2019-04-23T14:45:23.209Z,55.60
2019-04-23T14:47:59.094Z,55.30
2019-04-23T14:51:09.867Z,55.60
2019-04-23T14:53:40.533Z,55.40
2019-04-23T14:56:28.795Z,55.80
2019-04-23T15:01:36.090Z,55.40
2019-04-23T15:04:28.628Z,55.30
2019-04-23T15:10:18.604Z,55.30
2019-04-23T15:13:01.830Z,55.80
2019-04-23T15:15:55.642Z,55.30
2019-04-23T15:19:21.694Z,54.60
2019-04-23T15:25:06.983Z,54.60
2019-04-23T15:27:29.583Z,54.70
2019-04-23T15:30:29.507Z,54.10
2019-04-23T15:33:35.261Z,54.20
2019-04-23T15:36:32.520Z,55.10
2019-04-23T15:39:21.074Z,54.80
2019-04-23T15:42:09.295Z,54.40
2019-04-23T15:44:49.050Z,54.10
2019-04-23T15:47:45.740Z,54.40
2019-04-23T15:50:32.231Z,54.00
2019-04-23T15:53:11.230Z,54.90
2019-04-23T15:56:18.280Z,54.60
2019-04-23T15:59:25.923Z,54.60
2019-04-23T16:01:39.481Z,54.90
2019-04-23T16:04:15.340Z,54.50
2019-04-23T16:06:45.693Z,54.80
2019-04-23T16:10:12.604Z,55.00
2019-04-23T16:12:56.336Z,54.80
2019-04-23T16:15:43.377Z,54.80
2019-04-23T16:19:07.597Z,55.10
2019-04-23T16:24:51.817Z,55.40
2019-04-23T16:27:48.993Z,55.70
2019-04-23T16:33:20.159Z,55.80
2019-04-23T16:38:58.613Z,55.90
2019-04-23T16:41:54.619Z,56.60
2019-04-23T16:44:46.498Z,55.60
2019-04-23T16:47:28.146Z,55.60
2019-04-23T16:50:56.162Z,55.80
2019-04-23T16:53:20.947Z,55.30
2019-04-23T16:56:13.412Z,55.50
2019-04-23T16:59:02.436Z,56.10
2019-04-23T17:01:52.373Z,55.60
2019-04-23T17:04:39.272Z,55.20
2019-04-23T17:07:27.270Z,55.20
2019-04-23T17:10:23.242Z,55.30
2019-04-23T17:16:06.709Z,55.50
2019-04-23T17:21:25.169Z,54.80
2019-04-23T17:24:21.104Z,54.90
2019-04-23T17:27:16.608Z,55.00
2019-04-23T17:29:57.838Z,55.10
2019-04-23T17:32:57.223Z,55.10
2019-04-23T17:36:12.086Z,55.50
2019-04-23T17:38:51.432Z,55.70
2019-04-23T17:42:01.007Z,55.60
2019-04-23T17:45:09.968Z,55.80
2019-04-23T17:47:52.413Z,55.90
2019-04-23T17:53:54.440Z,56.30
2019-04-23T17:56:55.848Z,56.20
2019-04-23T18:00:25.495Z,56.60
2019-04-23T18:05:37.390Z,56.90
2019-04-23T18:08:27.133Z,57.40
2019-04-23T18:11:16.212Z,57.20
2019-04-23T18:17:07.558Z,57.50
2019-04-23T18:20:14.870Z,57.60
2019-04-23T18:26:02.096Z,58.00
2019-04-23T18:29:00.324Z,57.90
2019-04-23T18:31:59.740Z,57.90
2019-04-23T18:35:04.279Z,57.80
2019-04-23T18:40:21.582Z,58.20
2019-04-23T18:43:24.004Z,58.50
2019-04-23T18:46:08.701Z,58.70
2019-04-23T18:51:34.476Z,58.80
2019-04-23T18:54:22.359Z,58.80
2019-04-23T18:57:12.644Z,59.00
2019-04-23T19:00:07.481Z,59.20
2019-04-23T19:03:21.152Z,59.40
2019-04-23T19:06:23.874Z,59.70
2019-04-23T19:09:23.883Z,59.50
2019-04-23T19:12:34.898Z,59.60
2019-04-23T19:15:21.550Z,59.80
2019-04-23T19:17:56.495Z,60.00
2019-04-23T19:20:37.925Z,60.00
2019-04-23T19:23:16.372Z,60.10
2019-04-23T19:29:11.574Z,60.50
2019-04-23T19:34:46.913Z,61.00
2019-04-23T19:37:49.478Z,60.90
2019-04-23T19:40:37.999Z,61.00
2019-04-23T19:43:19.847Z,61.20
2019-04-23T19:46:33.959Z,61.30
2019-04-23T19:49:05.752Z,61.50
2019-04-23T19:51:56.732Z,61.40
2019-04-23T19:54:52.614Z,61.50
2019-04-23T19:57:49.282Z,61.60
2019-04-23T20:00:31.189Z,61.70
2019-04-23T20:03:26.648Z,61.80
2019-04-23T20:14:41.706Z,62.50
2019-04-23T20:20:18.222Z,62.80
2019-04-23T20:23:13.266Z,62.90
2019-04-23T20:26:15.648Z,63.20
2019-04-23T20:38:03.038Z,63.40
2019-04-23T20:40:33.017Z,63.40
2019-04-23T20:43:18.959Z,63.40
2019-04-23T20:46:06.570Z,63.30
2019-04-23T20:49:00.556Z,63.30
2019-04-23T21:00:43.247Z,64.10
2019-04-23T21:03:52.244Z,63.50
2019-04-23T21:06:47.039Z,63.50
2019-04-23T21:12:04.805Z,63.40
2019-04-23T21:15:05.411Z,63.50
2019-04-23T21:20:53.429Z,64.00
2019-04-23T21:26:20.090Z,64.00
2019-04-23T21:29:09.125Z,64.00
2019-04-23T21:32:08.818Z,64.40
2019-04-23T21:34:56.444Z,64.20
2019-04-23T21:37:55.936Z,64.20
2019-04-23T21:41:00.923Z,64.40
2019-04-23T21:46:36.815Z,64.90
2019-04-23T21:49:25.130Z,65.00
2019-04-23T21:52:11.531Z,65.20
2019-04-23T21:55:03.707Z,65.50
2019-04-23T21:58:01.365Z,65.60
2019-04-23T22:00:51.952Z,65.70
2019-04-23T22:04:01.052Z,65.80
2019-04-23T22:06:39.597Z,65.90
2019-04-23T22:20:43.692Z,66.50
2019-04-23T22:23:48.243Z,66.60
2019-04-23T22:26:34.711Z,66.80
2019-04-23T22:29:18.365Z,66.80
2019-04-23T22:32:00.157Z,66.90
2019-04-23T22:34:57.199Z,67.00
2019-04-23T22:37:53.917Z,67.20
2019-04-23T22:40:36.248Z,67.50
2019-04-23T22:55:17.547Z,68.00
2019-04-23T23:01:23.748Z,68.40
2019-04-23T23:04:15.182Z,68.50
2019-04-23T23:10:00.561Z,68.70
2019-04-23T23:12:51.304Z,68.90
2019-04-23T23:21:13.392Z,68.90
2019-04-23T23:27:02.412Z,69.20
2019-04-23T23:30:01.065Z,69.60
2019-04-23T23:32:40.480Z,69.20
2019-04-23T23:35:28.319Z,69.20
2019-04-23T23:38:25.526Z,69.40
2019-04-23T23:44:20.925Z,69.60
2019-04-23T23:47:01.715Z,69.80
2019-04-23T23:49:48.526Z,69.80
2019-04-23T23:52:40.275Z,70.00
2019-04-23T23:55:07.861Z,70.00
2019-04-23T23:58:02.911Z,69.90
